Time;durP1;ratioP1;P1;durP2;ratioP2;P2;SDS_P1;SDS_P2;PMS_P1;PMS_P2;Temp;Humidity;BMP_temperature;BMP_pressure;BME280_temperature;BME280_humidity;BME280_pressure;Samples;Min_cycle;Max_cycle;Signal;HPM_P1;HPM_P2
2021/03/25 00:03:54;;;;;;;62.50;40.90;;;;;;;6.09;76.75;100711.02;2923505;80;21142;-62
2021/03/25 00:07:57;;;;;;;68.72;44.85;;;;;;;6.12;76.98;100720.09;2879107;82;21143;-62
2021/03/25 00:12:03;;;;;;;61.42;41.50;;;;;;;6.11;76.86;100709.59;2905812;81;21558;-62
2021/03/25 00:16:08;;;;;;;60.92;40.33;;;;;;;6.08;76.53;100705.81;2913661;81;21179;-62
2021/03/25 00:20:14;;;;;;;63.70;41.35;;;;;;;5.98;76.77;100708.08;2925349;80;21166;-62
2021/03/25 00:24:20;;;;;;;71.55;46.00;;;;;;;5.86;77.26;100705.17;2925607;81;21135;-63
2021/03/25 00:28:23;;;;;;;70.13;42.53;;;;;;;5.88;77.63;100698.50;2924733;80;21119;-62
2021/03/25 00:32:26;;;;;;;57.08;36.75;;;;;;;5.92;77.08;100704.48;2924302;81;21401;-62
2021/03/25 00:36:29;;;;;;;66.22;39.35;;;;;;;5.92;76.95;100709.76;2924026;81;21135;-62
2021/03/25 00:40:33;;;;;;;62.75;42.55;;;;;;;5.97;76.35;100698.46;2924568;81;21139;-63
2021/03/25 00:44:37;;;;;;;58.33;38.48;;;;;;;5.88;76.03;100695.00;2924184;80;21107;-62
2021/03/25 00:48:40;;;;;;;64.30;42.80;;;;;;;5.83;75.69;100697.43;2924058;81;21143;-63
2021/03/25 00:52:44;;;;;;;61.18;38.15;;;;;;;5.82;75.54;100697.05;2923957;81;21167;-62
2021/03/25 00:56:47;;;;;;;56.30;36.93;;;;;;;5.81;75.61;100700.63;2924043;81;21186;-63
2021/03/25 01:00:51;;;;;;;73.35;46.70;;;;;;;5.86;75.74;100699.89;2924228;81;21167;-62
2021/03/25 01:04:56;;;;;;;75.65;47.23;;;;;;;5.83;75.41;100692.63;2924035;80;21115;-62
2021/03/25 01:08:59;;;;;;;63.00;40.85;;;;;;;5.84;75.30;100695.17;2923900;81;21136;-62
2021/03/25 01:13:07;;;;;;;63.63;42.03;;;;;;;5.83;74.80;100693.47;2924673;80;21634;-62
2021/03/25 01:17:11;;;;;;;68.85;42.65;;;;;;;5.77;75.12;100689.86;2909855;81;21078;-62
2021/03/25 01:21:14;;;;;;;64.20;46.48;;;;;;;5.80;75.24;100689.69;2900202;82;21109;-62
2021/03/25 01:25:20;;;;;;;72.75;47.38;;;;;;;5.83;75.16;100680.75;2900322;82;21102;-62
2021/03/25 01:29:26;;;;;;;68.10;47.80;;;;;;;5.90;75.48;100690.51;2900504;82;21137;-62
2021/03/25 01:33:29;;;;;;;63.38;40.58;;;;;;;5.90;75.37;100684.75;2900419;82;21280;-63
2021/03/25 01:37:42;;;;;;;68.12;51.45;;;;;;;5.96;75.44;100683.55;2899897;82;21089;-62
2021/03/25 01:41:45;;;;;;;67.65;48.35;;;;;;;5.98;75.18;100683.83;2900188;82;21141;-62
2021/03/25 01:46:20;;;;;;;66.28;47.20;;;;;;;5.95;74.57;100676.58;2899800;82;21093;-62
2021/03/25 01:50:24;;;;;;;54.42;36.13;;;;;;;5.86;74.55;100677.45;2900190;82;21149;-62
2021/03/25 01:55:01;;;;;;;55.63;37.33;;;;;;;5.80;74.47;100676.48;2899961;82;21113;-62
2021/03/25 01:59:42;;;;;;;64.65;43.17;;;;;;;5.53;74.46;100679.72;2899962;82;21102;-62
2021/03/25 02:04:21;;;;;;;57.38;37.83;;;;;;;5.17;75.71;100682.08;2900092;80;21165;-62
2021/03/25 02:09:09;;;;;;;60.05;37.00;;;;;;;4.99;77.39;100672.88;2764224;86;21231;-62
2021/03/25 02:13:53;;;;;;;64.82;41.42;;;;;;;4.86;78.01;100673.12;2762958;86;21581;-63
2021/03/25 02:18:01;;;;;;;63.40;42.48;;;;;;;4.72;78.17;100673.84;2697255;87;21141;-63
2021/03/25 02:22:46;;;;;;;65.80;43.85;;;;;;;4.57;78.11;100675.48;2764094;85;21194;-63
2021/03/25 02:27:17;;;;;;;79.58;44.55;;;;;;;4.59;78.10;100678.88;2724000;87;21149;-63
2021/03/25 02:31:24;;;;;;;67.60;43.87;;;;;;;4.50;77.96;100675.38;2750353;86;21195;-63
2021/03/25 02:35:41;;;;;;;60.73;40.58;;;;;;;4.29;78.74;100667.17;2723996;87;21655;-63
2021/03/25 02:40:07;;;;;;;73.45;42.03;;;;;;;4.20;79.18;100661.50;2764086;86;21138;-63
2021/03/25 02:44:23;;;;;;;76.45;46.58;;;;;;;4.32;79.55;100664.83;2763902;86;21151;-64
2021/03/25 02:48:29;;;;;;;63.23;46.30;;;;;;;4.30;78.57;100662.73;2755150;86;21132;-63
2021/03/25 02:52:39;;;;;;;67.55;44.58;;;;;;;4.31;78.96;100660.49;2763961;86;21593;-63
2021/03/25 02:56:59;;;;;;;81.50;50.45;;;;;;;4.41;79.05;100663.52;2763231;86;21135;-64
2021/03/25 03:01:17;;;;;;;74.62;48.33;;;;;;;4.60;79.37;100663.46;2724211;87;21138;-64
2021/03/25 03:05:24;;;;;;;62.30;39.13;;;;;;;4.71;78.70;100657.16;2718849;87;21205;-63
2021/03/25 03:09:32;;;;;;;65.97;42.25;;;;;;;4.73;78.24;100650.98;2718631;87;21132;-63
2021/03/25 03:13:47;;;;;;;60.67;42.90;;;;;;;4.74;77.73;100652.69;2719134;87;21210;-62
2021/03/25 03:18:02;;;;;;;62.62;43.68;;;;;;;4.77;77.50;100653.36;2679767;88;21167;-63
2021/03/25 03:22:08;;;;;;;69.25;41.98;;;;;;;4.77;76.98;100647.25;2680145;88;21137;-63
2021/03/25 03:26:20;;;;;;;61.35;40.65;;;;;;;4.76;77.04;100650.83;2692436;88;21171;-63
2021/03/25 03:30:31;;;;;;;63.52;41.90;;;;;;;4.74;76.37;100648.73;2682714;87;21631;-62
2021/03/25 03:34:41;;;;;;;70.75;47.50;;;;;;;4.67;76.74;100653.47;2726810;87;21169;-64
2021/03/25 03:38:50;;;;;;;61.92;40.65;;;;;;;4.62;76.18;100651.06;2715377;87;21611;-63
2021/03/25 03:43:13;;;;;;;62.15;38.63;;;;;;;4.47;77.43;100649.20;2726774;87;21185;-63
2021/03/25 03:47:20;;;;;;;60.05;43.30;;;;;;;4.44;78.24;100646.27;2729337;87;21216;-63
2021/03/25 03:51:33;;;;;;;66.80;40.48;;;;;;;4.34;78.07;100641.93;2729399;87;21196;-62
2021/03/25 03:55:37;;;;;;;67.72;41.77;;;;;;;4.27;78.12;100641.83;2729504;87;21188;-63
2021/03/25 04:00:08;;;;;;;65.80;42.88;;;;;;;4.30;77.92;100652.20;2729673;87;21165;-63
2021/03/25 04:04:20;;;;;;;77.80;43.87;;;;;;;4.26;77.71;100647.58;2729661;87;21216;-65
2021/03/25 04:08:28;;;;;;;61.53;41.75;;;;;;;4.14;77.42;100649.04;2726911;87;21112;-61
2021/03/25 04:12:35;;;;;;;62.67;41.90;;;;;;;4.17;78.07;100648.49;2729409;87;21630;-61
2021/03/25 04:16:42;;;;;;;58.40;36.40;;;;;;;4.23;78.05;100646.42;2729566;87;21529;-61
2021/03/25 04:20:50;;;;;;;66.30;41.42;;;;;;;4.23;77.32;100648.19;2685214;87;21207;-62
2021/03/25 04:25:05;;;;;;;48.13;37.15;;;;;;;4.26;77.64;100645.39;2673612;89;21652;-61
2021/03/25 04:29:30;;;;;;;59.10;37.42;;;;;;;4.37;76.92;100644.41;2673101;89;21166;-60
2021/03/25 04:33:38;;;;;;;54.35;37.78;;;;;;;4.35;75.96;100640.13;2674220;88;21136;-60
2021/03/25 04:37:42;;;;;;;57.17;38.65;;;;;;;4.17;75.82;100634.84;2628753;90;21198;-63
2021/03/25 04:41:47;;;;;;;60.10;38.17;;;;;;;4.07;76.57;100641.03;2673382;89;21663;-64
2021/03/25 04:46:17;;;;;;;64.03;39.00;;;;;;;3.98;76.73;100640.18;2674098;89;21216;-64
2021/03/25 04:50:28;;;;;;;54.00;40.23;;;;;;;3.88;77.52;100641.53;2628623;90;21209;-64
2021/03/25 04:54:39;;;;;;;63.35;38.02;;;;;;;3.90;77.59;100647.58;2673278;89;21644;-62
2021/03/25 04:58:58;;;;;;;64.77;39.95;;;;;;;3.84;77.51;100646.95;2674271;89;21135;-62
2021/03/25 05:03:03;;;;;;;72.15;46.50;;;;;;;3.70;78.67;100649.38;2629127;89;21216;-62
2021/03/25 05:07:07;;;;;;;66.02;46.48;;;;;;;3.76;79.47;100653.05;2673484;89;21251;-64
2021/03/25 05:11:15;;;;;;;79.45;45.75;;;;;;;3.97;79.44;100650.32;2673154;89;21209;-63
2021/03/25 05:15:22;;;;;;;56.02;37.70;;;;;;;4.06;78.56;100651.17;2625357;90;21175;-64
2021/03/25 05:19:49;;;;;;;53.65;36.90;;;;;;;4.21;78.68;100651.36;2673464;89;21186;-64
2021/03/25 05:24:04;;;;;;;60.45;39.58;;;;;;;4.31;77.87;100651.27;2667705;89;21170;-66
2021/03/25 05:28:38;;;;;;;62.40;41.05;;;;;;;4.48;78.20;100650.89;2672229;88;21657;-65
2021/03/25 05:32:45;;;;;;;61.48;40.05;;;;;;;4.66;78.20;100652.59;2650084;89;21620;-64
2021/03/25 05:36:51;;;;;;;77.55;46.98;;;;;;;5.02;79.53;100648.14;2650564;87;21216;-62
2021/03/25 05:41:28;;;;;;;72.92;46.35;;;;;;;5.32;78.53;100653.19;2663758;88;21164;-63
2021/03/25 05:46:11;;;;;;;76.05;46.65;;;;;;;5.51;77.46;100656.52;2674094;88;21147;-63
2021/03/25 05:50:56;;;;;;;73.10;47.88;;;;;;;5.47;77.54;100661.56;2678386;88;21124;-60
2021/03/25 05:55:19;;;;;;;91.32;50.33;;;;;;;5.66;78.28;100668.47;2710018;87;21683;-61
2021/03/25 05:59:25;;;;;;;63.23;43.05;;;;;;;6.10;78.86;100671.78;2709652;87;21153;-62
2021/03/25 06:03:30;;;;;;;72.35;46.55;;;;;;;6.43;79.35;100668.59;2653295;89;21196;-62
2021/03/25 06:07:50;;;;;;;59.70;40.43;;;;;;;6.86;78.90;100675.75;2676391;89;21173;-62
2021/03/25 06:12:03;;;;;;;59.88;41.53;;;;;;;7.36;78.66;100686.00;2676806;89;21630;-62
2021/03/25 06:16:30;;;;;;;61.37;39.03;;;;;;;7.56;77.43;100682.95;2675987;89;21153;-63
2021/03/25 06:21:02;;;;;;;58.30;37.30;;;;;;;7.79;77.79;100687.76;2675783;89;21196;-62
2021/03/25 06:25:47;;;;;;;192.20;98.50;;;;;;;8.16;77.18;100681.41;2676538;89;21618;-63
2021/03/25 06:29:55;;;;;;;111.47;72.15;;;;;;;8.64;76.01;100688.85;2676455;89;21184;-63
2021/03/25 06:34:36;;;;;;;103.70;71.60;;;;;;;9.10;71.93;100685.36;2763885;85;21136;-63
2021/03/25 06:38:50;;;;;;;97.53;58.13;;;;;;;9.28;70.80;100685.86;2764666;86;21160;-63
2021/03/25 06:43:05;;;;;;;76.53;50.65;;;;;;;9.45;69.07;100686.48;2764423;86;21151;-64
2021/03/25 06:47:29;;;;;;;89.83;57.55;;;;;;;9.52;67.74;100689.06;2764429;86;21586;-64
2021/03/25 06:51:39;;;;;;;91.02;51.05;;;;;;;9.22;67.34;100687.14;2764318;86;21160;-63
2021/03/25 06:55:42;;;;;;;80.60;50.38;;;;;;;8.76;68.48;100690.31;2764001;86;21613;-64
2021/03/25 06:59:46;;;;;;;72.00;45.23;;;;;;;8.58;69.47;100695.91;2764313;85;21593;-63
2021/03/25 07:03:54;;;;;;;87.95;51.13;;;;;;;8.73;70.06;100692.69;2764453;86;21174;-64
2021/03/25 07:08:21;;;;;;;73.80;48.40;;;;;;;8.95;70.95;100699.22;2762554;86;21155;-63
2021/03/25 07:12:31;;;;;;;63.95;44.93;;;;;;;9.42;71.14;100692.85;2761017;86;21560;-64
2021/03/25 07:16:41;;;;;;;61.23;38.80;;;;;;;9.83;70.01;100707.67;2760726;86;21215;-64
2021/03/25 07:20:44;;;;;;;65.83;43.98;;;;;;;10.00;69.67;100713.55;2760806;86;21163;-63
2021/03/25 07:24:51;;;;;;;68.52;44.48;;;;;;;10.29;69.75;100710.58;2761051;86;21546;-64
2021/03/25 07:29:14;;;;;;;77.97;50.83;;;;;;;10.41;68.07;100710.17;2761169;86;21199;-64
2021/03/25 07:33:22;;;;;;;74.70;50.67;;;;;;;10.48;68.40;100712.73;2733514;85;21592;-63
2021/03/25 07:37:41;;;;;;;69.70;49.42;;;;;;;10.65;69.27;100698.64;2727351;86;21132;-64
2021/03/25 07:41:45;;;;;;;72.80;48.40;;;;;;;11.03;69.84;100698.02;2727623;86;21184;-64
2021/03/25 07:46:11;;;;;;;60.50;41.90;;;;;;;11.35;70.33;100697.31;2727577;87;21168;-64
2021/03/25 07:50:36;;;;;;;;;;;;;;;11.69;70.07;100703.49;2730243;87;21176;-63
2021/03/25 07:54:42;;;;;;;72.53;45.40;;;;;;;12.13;69.39;100700.87;2727758;87;20184;-64
2021/03/25 07:58:48;;;;;;;63.05;44.08;;;;;;;12.47;68.83;100696.39;2727928;86;21621;-64
2021/03/25 08:03:16;;;;;;;78.30;47.73;;;;;;;12.63;67.42;100700.80;2727782;87;21160;-64
2021/03/25 08:07:21;;;;;;;63.35;46.40;;;;;;;12.95;67.70;100697.20;2731971;86;21216;-64
2021/03/25 08:11:24;;;;;;;73.92;47.50;;;;;;;13.19;66.98;100701.91;2739999;86;21149;-64
2021/03/25 08:15:38;;;;;;;77.17;53.02;;;;;;;13.29;67.21;100697.48;2739619;86;21197;-64
2021/03/25 08:19:55;;;;;;;75.25;52.38;;;;;;;13.50;67.99;100704.13;2675193;89;21162;-64
2021/03/25 08:24:25;;;;;;;61.50;43.25;;;;;;;13.73;67.38;100706.58;2743004;86;21113;-64
2021/03/25 08:28:54;;;;;;;79.77;50.80;;;;;;;13.89;66.49;100705.23;2742916;86;21118;-64
2021/03/25 08:33:31;;;;;;;73.12;50.63;;;;;;;13.79;66.60;100703.86;2743475;86;21161;-64
2021/03/25 08:37:58;;;;;;;87.05;57.03;;;;;;;13.73;67.33;100707.92;2743406;86;21141;-65
2021/03/25 08:42:29;;;;;;;72.75;47.58;;;;;;;14.12;66.68;100688.45;3067675;77;22758;-63
2021/03/25 08:46:38;;;;;;;61.42;44.03;;;;;;;14.30;66.49;100689.93;3022160;78;21093;-63
2021/03/25 08:51:02;;;;;;;66.17;42.95;;;;;;;14.48;65.12;100684.73;2961693;80;21111;-63
2021/03/25 08:55:35;;;;;;;63.78;44.58;;;;;;;14.78;64.46;100684.22;2962365;80;21507;-62
2021/03/25 08:59:49;;;;;;;56.80;38.65;;;;;;;14.95;61.62;100679.98;2961547;79;21151;-63
2021/03/25 09:03:59;;;;;;;62.20;40.67;;;;;;;15.19;60.60;100686.67;2839524;83;21106;-63
2021/03/25 09:08:13;;;;;;;56.10;38.55;;;;;;;15.35;60.46;100678.00;2846135;83;21134;-63
2021/03/25 09:12:28;;;;;;;68.85;45.28;;;;;;;15.44;59.86;100676.27;2861450;83;21149;-63
2021/03/25 09:16:34;;;;;;;58.70;41.10;;;;;;;15.53;58.84;100678.08;2861191;83;21101;-63
2021/03/25 09:20:43;;;;;;;57.98;40.05;;;;;;;15.58;59.07;100673.58;2846304;83;21110;-63
2021/03/25 09:25:21;;;;;;;65.00;44.33;;;;;;;15.71;58.50;100675.91;2895003;82;21118;-63
2021/03/25 09:29:29;;;;;;;58.23;41.15;;;;;;;15.67;58.58;100675.87;2846381;83;21114;-64
2021/03/25 09:33:49;;;;;;;56.15;37.35;;;;;;;15.85;58.82;100669.21;2846020;83;21162;-64
2021/03/25 09:37:53;;;;;;;59.00;40.48;;;;;;;15.93;58.22;100669.32;2846375;83;21138;-64
2021/03/25 09:42:18;;;;;;;63.42;42.53;;;;;;;15.95;56.66;100671.86;2845972;83;21117;-64
2021/03/25 09:46:51;;;;;;;68.05;43.92;;;;;;;16.05;56.57;100668.59;2842403;83;21548;-64
2021/03/25 09:51:21;;;;;;;62.50;40.98;;;;;;;16.11;55.96;100669.83;2845908;83;21154;-65
2021/03/25 09:55:26;;;;;;;54.05;37.28;;;;;;;16.13;56.17;100665.16;2845426;83;21098;-64
2021/03/25 09:59:53;;;;;;;59.58;39.67;;;;;;;16.15;54.64;100664.50;2845732;83;21098;-64
2021/03/25 10:04:00;;;;;;;70.10;47.93;;;;;;;16.22;55.72;100663.39;2845278;83;21170;-64
2021/03/25 10:08:20;;;;;;;58.30;39.27;;;;;;;16.37;56.13;100661.86;2845886;83;21138;-65
2021/03/25 10:12:48;;;;;;;87.37;56.25;;;;;;;16.40;54.52;100655.31;2845500;83;21079;-65
2021/03/25 10:16:51;;;;;;;61.37;39.85;;;;;;;16.54;55.28;100660.14;2845723;83;21110;-64
2021/03/25 10:21:12;;;;;;;54.15;36.95;;;;;;;16.72;55.17;100655.75;2845630;83;21221;-64
2021/03/25 10:25:15;;;;;;;52.25;35.95;;;;;;;16.87;55.61;100649.30;2846069;83;21114;-64
2021/03/25 10:29:30;;;;;;;56.95;38.95;;;;;;;16.85;53.69;100646.27;2845716;83;21137;-64
2021/03/25 10:33:44;;;;;;;57.25;39.30;;;;;;;16.90;53.15;100643.59;3069432;77;22789;-63
2021/03/25 10:37:51;;;;;;;62.62;41.73;;;;;;;16.99;53.28;100643.52;3023455;78;21137;-63
2021/03/25 10:42:00;;;;;;;54.75;36.17;;;;;;;17.10;52.99;100643.74;2963456;80;21103;-63
2021/03/25 10:46:07;;;;;;;67.82;40.90;;;;;;;17.04;52.80;100639.50;2959581;79;21567;-64
2021/03/25 10:50:16;;;;;;;52.10;36.80;;;;;;;16.94;53.05;100633.73;2963435;80;21174;-63
2021/03/25 10:54:27;;;;;;;54.38;38.15;;;;;;;16.91;52.95;100631.36;2963403;80;21111;-64
2021/03/25 10:58:37;;;;;;;60.08;39.50;;;;;;;16.91;53.53;100628.67;2963712;80;21169;-63
2021/03/25 11:02:44;;;;;;;55.05;37.42;;;;;;;17.05;52.69;100624.58;2946806;80;21196;-64
2021/03/25 11:06:47;;;;;;;53.90;37.50;;;;;;;17.23;53.19;100626.34;2912338;81;21139;-63
2021/03/25 11:10:52;;;;;;;52.53;35.10;;;;;;;17.34;54.09;100619.83;2911705;81;21171;-64
2021/03/25 11:15:02;;;;;;;53.05;35.95;;;;;;;17.42;53.82;100619.84;2912509;81;21103;-64
2021/03/25 11:19:13;;;;;;;52.83;36.20;;;;;;;17.43;53.42;100620.19;2911337;81;21127;-64
2021/03/25 11:23:20;;;;;;;60.85;40.05;;;;;;;17.45;53.67;100611.97;2912215;81;21623;-63
2021/03/25 11:27:26;;;;;;;63.85;38.08;;;;;;;17.54;53.41;100611.83;2911965;81;21146;-63
2021/03/25 11:31:35;;;;;;;65.03;41.65;;;;;;;17.66;53.23;100611.02;2888516;81;21112;-63
2021/03/25 11:35:41;;;;;;;60.35;36.98;;;;;;;17.65;54.00;100603.95;2853667;83;21137;-64
2021/03/25 11:40:06;;;;;;;;;;;;;;;17.75;53.33;100605.16;2856470;83;21602;-63
2021/03/25 11:44:11;;;;;;;54.58;35.63;;;;;;;17.81;54.55;100602.31;2852585;83;20183;-64
2021/03/25 11:48:21;;;;;;;59.08;35.68;;;;;;;17.89;53.00;100596.10;2853155;82;21084;-63
2021/03/25 11:52:24;;;;;;;49.70;36.33;;;;;;;17.95;53.41;100600.81;2852606;83;21128;-63
2021/03/25 11:56:38;;;;;;;52.13;36.30;;;;;;;18.05;53.94;100594.78;2853434;83;21570;-63
2021/03/25 12:01:14;;;;;;;61.05;36.00;;;;;;;18.15;53.39;100599.17;2852882;83;21160;-63
2021/03/25 12:05:29;;;;;;;54.83;39.25;;;;;;;18.19;51.36;100584.36;2853085;83;21156;-64
2021/03/25 12:09:36;;;;;;;52.88;36.60;;;;;;;18.25;52.18;100577.80;2845526;83;21233;-63
2021/03/25 12:13:40;;;;;;;52.10;38.40;;;;;;;18.32;51.40;100573.92;2853062;83;21108;-64
2021/03/25 12:17:57;;;;;;;50.40;35.43;;;;;;;18.46;50.95;100572.39;2828109;82;21101;-63
2021/03/25 12:22:01;;;;;;;48.05;34.70;;;;;;;18.48;53.21;100566.31;2886384;82;21145;-63
2021/03/25 12:26:14;;;;;;;56.33;36.80;;;;;;;18.56;52.18;100562.77;2886476;82;21148;-64
2021/03/25 12:30:19;;;;;;;50.05;34.53;;;;;;;18.53;52.83;100562.59;2886543;80;21563;-64
2021/03/25 12:34:23;;;;;;;54.05;35.90;;;;;;;18.49;50.72;100561.79;2955376;80;21109;-63
2021/03/25 12:38:27;;;;;;;53.95;37.15;;;;;;;18.60;50.99;100565.98;2955481;80;21081;-63
2021/03/25 12:42:30;;;;;;;51.63;32.75;;;;;;;18.60;50.54;100557.37;2955265;80;21149;-64
2021/03/25 12:46:36;;;;;;;45.58;34.40;;;;;;;18.56;51.76;100558.73;2953811;80;21141;-63
2021/03/25 12:50:39;;;;;;;51.55;34.85;;;;;;;18.65;51.77;100560.91;2955146;80;21158;-63
2021/03/25 12:54:43;;;;;;;50.88;34.30;;;;;;;18.70;51.80;100545.91;2955423;80;21121;-64
2021/03/25 12:58:46;;;;;;;51.90;34.67;;;;;;;18.80;50.24;100550.24;2955505;80;21110;-64
2021/03/25 13:02:49;;;;;;;48.25;33.73;;;;;;;18.80;50.12;100543.02;2955425;80;21159;-63
2021/03/25 13:06:53;;;;;;;45.43;30.32;;;;;;;18.81;50.30;100537.09;2955318;80;21515;-64
2021/03/25 13:10:56;;;;;;;50.85;33.80;;;;;;;18.86;50.12;100537.41;2955556;80;21134;-64
2021/03/25 13:15:28;;;;;;;53.50;33.78;;;;;;;18.80;49.65;100534.08;2939239;80;21202;-68
2021/03/25 13:19:31;;;;;;;45.12;30.90;;;;;;;18.91;51.12;100532.85;2772556;85;21140;-68
2021/03/25 13:23:37;;;;;;;51.92;33.45;;;;;;;19.07;52.02;100529.30;2755109;85;21447;-70
2021/03/25 13:27:40;;;;;;;44.95;29.75;;;;;;;19.15;51.10;100524.34;2742956;86;21116;-69
2021/03/25 13:31:43;;;;;;;44.18;28.70;;;;;;;19.14;49.70;100527.56;2742521;86;21204;-70
2021/03/25 13:35:48;;;;;;;45.58;29.52;;;;;;;19.21;49.85;100519.09;2742412;86;21167;-70
2021/03/25 13:39:51;;;;;;;44.17;30.30;;;;;;;19.29;49.36;100517.38;2742845;86;21152;-70
2021/03/25 13:43:54;;;;;;;47.17;31.60;;;;;;;19.23;48.51;100516.23;2742701;86;21199;-70
2021/03/25 13:47:58;;;;;;;36.98;25.55;;;;;;;19.25;49.46;100512.31;2742365;86;21669;-70
2021/03/25 13:52:01;;;;;;;38.05;25.23;;;;;;;19.33;48.89;100506.56;2742607;86;21218;-70
2021/03/25 13:56:07;;;;;;;38.35;24.37;;;;;;;19.38;48.02;100499.62;2741933;86;21618;-71
2021/03/25 14:00:12;;;;;;;41.60;26.30;;;;;;;19.43;48.01;100503.63;2742084;86;21180;-68
2021/03/25 14:04:15;;;;;;;38.63;24.10;;;;;;;19.27;47.57;100497.32;2741671;85;21160;-69
2021/03/25 14:08:18;;;;;;;34.73;23.38;;;;;;;19.28;47.34;100496.30;2741303;86;21155;-67
2021/03/25 14:12:21;;;;;;;32.58;22.30;;;;;;;19.42;48.62;100489.30;2741460;86;21183;-71
2021/03/25 14:16:24;;;;;;;35.55;22.02;;;;;;;19.55;47.44;100488.69;2737348;86;21196;-65
2021/03/25 14:20:28;;;;;;;33.63;22.10;;;;;;;19.60;47.79;100481.41;2734305;87;21624;-76
2021/03/25 14:24:32;;;;;;;31.20;20.72;;;;;;;19.57;48.33;100477.73;2731051;86;21683;-79
2021/03/25 14:28:35;;;;;;;31.37;20.17;;;;;;;19.55;46.31;100490.04;2714278;87;21186;-72
2021/03/25 14:32:39;;;;;;;37.50;22.25;;;;;;;19.39;47.16;100474.82;2715478;87;21599;-73
2021/03/25 14:36:43;;;;;;;33.80;21.97;;;;;;;19.34;47.97;100475.88;2716099;86;21210;-69
2021/03/25 14:40:47;;;;;;;28.35;20.43;;;;;;;19.33;47.45;100473.67;2715532;87;21166;-69
2021/03/25 14:44:50;;;;;;;32.30;21.95;;;;;;;19.28;47.04;100476.60;2716876;87;21178;-69
2021/03/25 14:48:53;;;;;;;30.80;21.85;;;;;;;19.24;46.91;100470.72;2716580;87;21202;-70
2021/03/25 14:53:01;;;;;;;31.57;23.57;;;;;;;19.15;47.22;100473.11;2716045;86;21189;-69
2021/03/25 14:57:06;;;;;;;35.70;23.57;;;;;;;19.11;47.85;100461.87;2715418;86;21580;-69
2021/03/25 15:01:09;;;;;;;30.00;21.95;;;;;;;19.08;48.77;100460.36;2731393;86;21885;-70
2021/03/25 15:05:15;;;;;;;26.77;20.97;;;;;;;19.16;49.35;100460.81;2696521;87;21145;-70
2021/03/25 15:09:18;;;;;;;28.83;19.62;;;;;;;19.08;48.02;100460.88;2712320;87;21147;-69
2021/03/25 15:13:23;;;;;;;29.85;22.05;;;;;;;19.10;48.46;100462.36;2715615;87;21158;-69
2021/03/25 15:17:26;;;;;;;32.98;19.65;;;;;;;19.01;48.96;100459.89;2687717;87;21175;-69
2021/03/25 15:21:30;;;;;;;25.02;18.07;;;;;;;18.80;48.04;100459.97;2725312;87;21133;-69
2021/03/25 15:25:37;;;;;;;28.02;18.37;;;;;;;18.61;49.33;100462.06;2756158;86;21776;-69
2021/03/25 15:29:40;;;;;;;27.93;19.98;;;;;;;18.33;50.45;100460.31;2755686;86;21625;-69
2021/03/25 15:33:44;;;;;;;30.57;19.98;;;;;;;18.04;50.63;100457.17;2755550;86;21179;-69
2021/03/25 15:37:48;;;;;;;28.40;20.17;;;;;;;17.86;49.42;100457.34;2755562;86;21633;-68
2021/03/25 15:41:51;;;;;;;37.65;20.27;;;;;;;17.78;52.86;100464.06;2755778;85;21179;-69
2021/03/25 15:45:54;;;;;;;25.32;18.30;;;;;;;17.87;53.17;100456.83;2756060;85;21155;-68
2021/03/25 15:49:58;;;;;;;29.20;20.62;;;;;;;17.98;51.46;100459.18;2756031;85;21151;-69
2021/03/25 15:54:04;;;;;;;31.17;21.33;;;;;;;18.10;49.97;100463.23;2754708;86;21147;-68
2021/03/25 15:58:10;;;;;;;30.65;19.87;;;;;;;18.13;51.60;100460.69;2756154;86;21207;-69
2021/03/25 16:02:16;;;;;;;;;;;;;;;18.09;51.32;100460.22;2758603;85;21197;-68
2021/03/25 16:06:46;;;;;;;32.67;20.80;;;;;;;18.10;52.36;100461.89;3013632;78;22970;-68
2021/03/25 16:10:50;;;;;;;33.63;20.23;;;;;;;17.99;52.31;100464.90;2970318;80;21136;-68
2021/03/25 16:14:54;;;;;;;32.33;20.77;;;;;;;17.85;52.67;100458.36;2862120;83;21168;-68
2021/03/25 16:18:57;;;;;;;30.43;19.52;;;;;;;17.61;54.28;100465.92;2912311;81;21136;-69
2021/03/25 16:23:06;;;;;;;29.77;21.00;;;;;;;17.37;56.49;100466.25;2911727;81;21142;-68
2021/03/25 16:27:10;;;;;;;29.63;21.55;;;;;;;17.17;57.18;100466.55;2912140;81;21121;-67
2021/03/25 16:31:15;;;;;;;35.63;20.40;;;;;;;17.03;58.42;100469.87;2911701;81;21165;-69
2021/03/25 16:35:26;;;;;;;42.38;21.48;;;;;;;16.87;58.93;100474.14;2911245;81;21169;-69
2021/03/25 16:39:30;;;;;;;34.65;20.32;;;;;;;16.72;59.54;100475.80;2911349;81;21352;-68
2021/03/25 16:43:38;;;;;;;42.50;23.98;;;;;;;16.57;60.88;100473.70;2910979;81;21165;-68
2021/03/25 16:47:41;;;;;;;32.28;21.93;;;;;;;16.47;60.87;100473.83;2911354;81;21144;-68
2021/03/25 16:51:44;;;;;;;32.35;24.02;;;;;;;16.39;61.43;100480.48;2911577;81;21126;-67
2021/03/25 16:55:50;;;;;;;34.38;24.00;;;;;;;16.27;61.43;100479.91;2911238;81;21643;-69
2021/03/25 16:59:54;;;;;;;31.60;20.55;;;;;;;16.05;61.29;100482.13;2911248;81;22280;-68
2021/03/25 17:03:57;;;;;;;32.93;21.50;;;;;;;15.88;61.55;100486.50;2882846;81;22232;-68
2021/03/25 17:08:01;;;;;;;31.27;20.72;;;;;;;15.69;62.83;100483.48;2852341;83;21122;-68
2021/03/25 17:12:06;;;;;;;33.23;22.73;;;;;;;15.51;63.51;100489.69;2851861;83;21138;-68
2021/03/25 17:16:10;;;;;;;30.65;22.22;;;;;;;15.33;64.34;100494.20;2851999;83;21175;-68
2021/03/25 17:20:18;;;;;;;24.10;19.62;;;;;;;15.19;64.86;100492.41;2851030;83;21495;-68
2021/03/25 17:24:21;;;;;;;31.30;22.45;;;;;;;15.07;64.61;100498.95;2851130;83;21150;-68
2021/03/25 17:28:32;;;;;;;28.83;20.68;;;;;;;14.97;64.21;100491.84;2851301;83;21624;-67
2021/03/25 17:32:36;;;;;;;37.13;21.35;;;;;;;14.88;64.37;100506.10;2851013;83;21174;-68
2021/03/25 17:36:40;;;;;;;28.10;19.77;;;;;;;14.80;64.71;100500.66;2851140;83;21161;-67
2021/03/25 17:40:44;;;;;;;28.10;20.25;;;;;;;14.73;64.79;100508.44;2810507;83;21113;-67
2021/03/25 17:44:47;;;;;;;31.40;21.52;;;;;;;14.73;65.04;100499.55;2803215;84;21152;-67
2021/03/25 17:48:51;;;;;;;35.05;22.32;;;;;;;14.74;64.95;100502.57;2803613;84;22287;-68
2021/03/25 17:52:57;;;;;;;41.65;28.73;;;;;;;14.73;65.02;100508.92;2803380;84;21610;-67
2021/03/25 17:57:00;;;;;;;44.05;29.92;;;;;;;14.62;66.13;100523.30;2803381;84;21168;-67
2021/03/25 18:01:05;;;;;;;39.53;27.55;;;;;;;14.57;64.41;100525.11;2803845;84;21192;-67
2021/03/25 18:05:11;;;;;;;52.43;34.05;;;;;;;14.52;62.40;100520.66;2840381;83;21183;-70
2021/03/25 18:09:15;;;;;;;52.53;34.23;;;;;;;14.55;62.81;100524.41;2851331;83;21173;-66
2021/03/25 18:13:25;;;;;;;45.90;31.80;;;;;;;14.51;64.81;100527.86;2850507;82;21173;-68
2021/03/25 18:17:31;;;;;;;47.23;32.90;;;;;;;14.36;65.08;100526.63;2849234;83;21165;-64
2021/03/25 18:21:38;;;;;;;45.45;31.25;;;;;;;14.29;64.88;100530.38;2821964;84;21587;-65
2021/03/25 18:25:44;;;;;;;54.03;31.73;;;;;;;14.22;65.23;100543.98;2820443;83;21550;-65
2021/03/25 18:29:47;;;;;;;;;;;;;;;14.10;65.22;100538.78;2804850;84;21190;-64
2021/03/25 18:33:50;;;;;;;56.50;33.48;;;;;;;14.09;64.27;100541.62;2802256;84;20150;-64
2021/03/25 18:37:53;;;;;;;56.63;35.88;;;;;;;14.04;64.36;100543.38;2802577;84;21115;-65
2021/03/25 18:41:58;;;;;;;52.08;35.08;;;;;;;13.99;64.33;100547.80;2802021;84;21445;-65
2021/03/25 18:46:06;;;;;;;51.00;34.20;;;;;;;13.94;64.24;100546.53;2802090;84;21549;-66
2021/03/25 18:50:11;;;;;;;47.15;34.67;;;;;;;13.82;64.20;100550.70;2803198;83;21617;-65
2021/03/25 18:54:14;;;;;;;47.70;35.38;;;;;;;13.78;64.13;100553.31;2842065;82;21197;-65
2021/03/25 18:58:22;;;;;;;51.98;35.28;;;;;;;13.69;63.78;100554.99;2817052;82;21613;-66
2021/03/25 19:02:25;;;;;;;53.50;33.88;;;;;;;13.60;64.13;100554.98;2845787;83;21145;-66
2021/03/25 19:06:30;;;;;;;57.43;37.28;;;;;;;13.40;64.62;100557.09;2854035;82;21144;-65
2021/03/25 19:10:37;;;;;;;57.43;38.85;;;;;;;13.06;66.28;100560.59;2874051;82;21117;-66